sensor_id;sensor_type;location;lat;lon;timestamp;P1;durP1;ratioP1;P2;durP2;ratioP2
27666;SDS011;15074;50.940;5.282;2022-09-09T00:03:40;3.00;;;0.70;;
27666;SDS011;15074;50.940;5.282;2022-09-09T00:06:13;3.55;;;0.85;;
27666;SDS011;15074;50.940;5.282;2022-09-09T00:09:00;1.58;;;0.73;;
27666;SDS011;15074;50.940;5.282;2022-09-09T00:11:51;7.80;;;1.13;;
27666;SDS011;15074;50.940;5.282;2022-09-09T00:14:26;2.03;;;0.60;;
27666;SDS011;15074;50.940;5.282;2022-09-09T00:17:06;1.33;;;0.70;;
27666;SDS011;15074;50.940;5.282;2022-09-09T00:19:45;1.48;;;1.00;;
27666;SDS011;15074;50.940;5.282;2022-09-09T00:22:37;1.23;;;0.63;;
27666;SDS011;15074;50.940;5.282;2022-09-09T00:25:11;2.05;;;0.85;;
27666;SDS011;15074;50.940;5.282;2022-09-09T00:27:44;2.28;;;1.17;;
27666;SDS011;15074;50.940;5.282;2022-09-09T00:30:19;4.22;;;0.90;;
27666;SDS011;15074;50.940;5.282;2022-09-09T00:32:48;1.60;;;1.02;;
27666;SDS011;15074;50.940;5.282;2022-09-09T00:37:51;0.98;;;0.60;;
27666;SDS011;15074;50.940;5.282;2022-09-09T00:40:32;1.27;;;0.90;;
27666;SDS011;15074;50.940;5.282;2022-09-09T00:43:26;1.30;;;0.70;;
27666;SDS011;15074;50.940;5.282;2022-09-09T00:55:05;3.28;;;1.23;;
27666;SDS011;15074;50.940;5.282;2022-09-09T01:02:29;2.70;;;0.88;;
27666;SDS011;15074;50.940;5.282;2022-09-09T01:05:22;1.45;;;0.98;;
27666;SDS011;15074;50.940;5.282;2022-09-09T01:07:55;2.92;;;0.95;;
27666;SDS011;15074;50.940;5.282;2022-09-09T01:10:36;4.03;;;1.10;;
27666;SDS011;15074;50.940;5.282;2022-09-09T01:13:20;2.13;;;0.85;;
27666;SDS011;15074;50.940;5.282;2022-09-09T01:15:49;2.58;;;1.50;;
27666;SDS011;15074;50.940;5.282;2022-09-09T01:29:01;3.25;;;1.30;;
27666;SDS011;15074;50.940;5.282;2022-09-09T01:31:31;3.38;;;1.20;;
27666;SDS011;15074;50.940;5.282;2022-09-09T01:34:16;2.05;;;1.00;;
27666;SDS011;15074;50.940;5.282;2022-09-09T01:36:58;4.22;;;1.10;;
27666;SDS011;15074;50.940;5.282;2022-09-09T01:39:35;3.28;;;1.25;;
27666;SDS011;15074;50.940;5.282;2022-09-09T01:42:03;1.67;;;0.93;;
27666;SDS011;15074;50.940;5.282;2022-09-09T01:44:32;3.38;;;1.25;;
27666;SDS011;15074;50.940;5.282;2022-09-09T01:46:59;2.33;;;1.17;;
27666;SDS011;15074;50.940;5.282;2022-09-09T01:49:25;4.65;;;1.88;;
27666;SDS011;15074;50.940;5.282;2022-09-09T01:51:52;6.13;;;1.40;;
27666;SDS011;15074;50.940;5.282;2022-09-09T01:54:20;4.03;;;1.30;;
27666;SDS011;15074;50.940;5.282;2022-09-09T01:59:40;3.67;;;1.33;;
27666;SDS011;15074;50.940;5.282;2022-09-09T02:02:14;1.83;;;1.02;;
27666;SDS011;15074;50.940;5.282;2022-09-09T02:04:45;3.75;;;1.65;;
27666;SDS011;15074;50.940;5.282;2022-09-09T02:07:24;2.60;;;1.27;;
27666;SDS011;15074;50.940;5.282;2022-09-09T02:12:40;8.55;;;1.73;;
27666;SDS011;15074;50.940;5.282;2022-09-09T02:15:16;3.92;;;1.60;;
27666;SDS011;15074;50.940;5.282;2022-09-09T02:17:51;4.13;;;1.73;;
27666;SDS011;15074;50.940;5.282;2022-09-09T02:20:19;7.55;;;1.90;;
27666;SDS011;15074;50.940;5.282;2022-09-09T02:22:46;9.68;;;1.63;;
27666;SDS011;15074;50.940;5.282;2022-09-09T02:25:15;4.28;;;1.50;;
27666;SDS011;15074;50.940;5.282;2022-09-09T02:27:45;4.32;;;1.23;;
27666;SDS011;15074;50.940;5.282;2022-09-09T02:30:13;3.00;;;1.33;;
27666;SDS011;15074;50.940;5.282;2022-09-09T02:32:39;4.72;;;1.90;;
27666;SDS011;15074;50.940;5.282;2022-09-09T02:35:09;3.50;;;1.15;;
27666;SDS011;15074;50.940;5.282;2022-09-09T02:37:42;5.78;;;1.65;;
27666;SDS011;15074;50.940;5.282;2022-09-09T02:40:13;4.95;;;1.50;;
27666;SDS011;15074;50.940;5.282;2022-09-09T02:42:41;4.13;;;1.50;;
27666;SDS011;15074;50.940;5.282;2022-09-09T02:45:09;8.98;;;1.70;;
27666;SDS011;15074;50.940;5.282;2022-09-09T02:47:38;5.13;;;1.58;;
27666;SDS011;15074;50.940;5.282;2022-09-09T02:50:19;3.58;;;1.65;;
27666;SDS011;15074;50.940;5.282;2022-09-09T02:53:03;5.85;;;1.40;;
27666;SDS011;15074;50.940;5.282;2022-09-09T02:56:04;3.85;;;1.17;;
27666;SDS011;15074;50.940;5.282;2022-09-09T02:58:41;5.28;;;1.70;;
27666;SDS011;15074;50.940;5.282;2022-09-09T03:01:07;4.15;;;1.45;;
27666;SDS011;15074;50.940;5.282;2022-09-09T03:03:33;1.83;;;1.20;;
27666;SDS011;15074;50.940;5.282;2022-09-09T03:05:59;3.17;;;1.55;;
27666;SDS011;15074;50.940;5.282;2022-09-09T03:08:25;2.45;;;1.17;;
27666;SDS011;15074;50.940;5.282;2022-09-09T03:10:53;5.30;;;1.80;;
27666;SDS011;15074;50.940;5.282;2022-09-09T03:13:19;3.93;;;1.63;;
27666;SDS011;15074;50.940;5.282;2022-09-09T03:15:45;2.95;;;1.55;;
27666;SDS011;15074;50.940;5.282;2022-09-09T03:18:10;7.07;;;1.35;;
27666;SDS011;15074;50.940;5.282;2022-09-09T03:20:36;4.80;;;1.45;;
27666;SDS011;15074;50.940;5.282;2022-09-09T03:23:02;2.65;;;1.40;;
27666;SDS011;15074;50.940;5.282;2022-09-09T03:25:28;5.15;;;1.40;;
27666;SDS011;15074;50.940;5.282;2022-09-09T03:27:54;7.00;;;1.58;;
27666;SDS011;15074;50.940;5.282;2022-09-09T03:30:21;3.22;;;1.20;;
27666;SDS011;15074;50.940;5.282;2022-09-09T03:32:47;3.83;;;1.20;;
27666;SDS011;15074;50.940;5.282;2022-09-09T03:35:13;5.65;;;1.40;;
27666;SDS011;15074;50.940;5.282;2022-09-09T03:37:40;3.50;;;1.50;;
27666;SDS011;15074;50.940;5.282;2022-09-09T03:40:06;5.43;;;1.58;;
27666;SDS011;15074;50.940;5.282;2022-09-09T03:45:02;3.87;;;1.20;;
27666;SDS011;15074;50.940;5.282;2022-09-09T03:47:28;3.50;;;1.30;;
27666;SDS011;15074;50.940;5.282;2022-09-09T03:49:54;3.47;;;1.52;;
27666;SDS011;15074;50.940;5.282;2022-09-09T03:52:20;5.95;;;1.30;;
27666;SDS011;15074;50.940;5.282;2022-09-09T03:54:49;4.50;;;1.48;;
27666;SDS011;15074;50.940;5.282;2022-09-09T03:57:16;3.83;;;1.40;;
27666;SDS011;15074;50.940;5.282;2022-09-09T03:59:42;3.80;;;1.05;;
27666;SDS011;15074;50.940;5.282;2022-09-09T04:02:08;4.57;;;1.63;;
27666;SDS011;15074;50.940;5.282;2022-09-09T04:04:34;3.38;;;1.27;;
27666;SDS011;15074;50.940;5.282;2022-09-09T04:07:00;3.03;;;1.23;;
27666;SDS011;15074;50.940;5.282;2022-09-09T04:09:25;10.50;;;1.23;;
27666;SDS011;15074;50.940;5.282;2022-09-09T04:11:51;4.75;;;1.30;;
27666;SDS011;15074;50.940;5.282;2022-09-09T04:14:18;4.47;;;1.58;;
27666;SDS011;15074;50.940;5.282;2022-09-09T04:16:44;3.10;;;0.90;;
27666;SDS011;15074;50.940;5.282;2022-09-09T04:19:10;2.45;;;1.00;;
27666;SDS011;15074;50.940;5.282;2022-09-09T04:21:38;5.97;;;1.73;;
27666;SDS011;15074;50.940;5.282;2022-09-09T04:24:05;4.78;;;1.65;;
27666;SDS011;15074;50.940;5.282;2022-09-09T04:26:31;6.88;;;1.70;;
27666;SDS011;15074;50.940;5.282;2022-09-09T04:28:57;5.10;;;1.73;;
27666;SDS011;15074;50.940;5.282;2022-09-09T04:31:23;4.63;;;1.35;;
27666;SDS011;15074;50.940;5.282;2022-09-09T04:33:49;3.05;;;1.00;;
27666;SDS011;15074;50.940;5.282;2022-09-09T04:36:15;7.22;;;1.30;;
27666;SDS011;15074;50.940;5.282;2022-09-09T04:38:43;3.42;;;1.85;;
27666;SDS011;15074;50.940;5.282;2022-09-09T04:41:09;4.22;;;1.75;;
27666;SDS011;15074;50.940;5.282;2022-09-09T04:43:36;4.90;;;1.45;;
27666;SDS011;15074;50.940;5.282;2022-09-09T04:46:02;4.30;;;1.45;;
27666;SDS011;15074;50.940;5.282;2022-09-09T04:48:28;6.07;;;1.60;;
27666;SDS011;15074;50.940;5.282;2022-09-09T04:53:23;6.47;;;1.60;;
27666;SDS011;15074;50.940;5.282;2022-09-09T04:55:48;4.22;;;1.33;;
27666;SDS011;15074;50.940;5.282;2022-09-09T04:58:14;7.07;;;2.00;;
27666;SDS011;15074;50.940;5.282;2022-09-09T05:00:40;9.20;;;1.45;;
27666;SDS011;15074;50.940;5.282;2022-09-09T05:03:05;5.10;;;1.58;;
27666;SDS011;15074;50.940;5.282;2022-09-09T05:05:33;4.38;;;1.60;;
27666;SDS011;15074;50.940;5.282;2022-09-09T05:08:03;3.85;;;1.40;;
27666;SDS011;15074;50.940;5.282;2022-09-09T05:10:30;8.73;;;1.52;;
27666;SDS011;15074;50.940;5.282;2022-09-09T05:12:57;5.60;;;1.65;;
27666;SDS011;15074;50.940;5.282;2022-09-09T05:15:22;4.75;;;1.40;;
27666;SDS011;15074;50.940;5.282;2022-09-09T05:17:48;4.63;;;1.60;;
27666;SDS011;15074;50.940;5.282;2022-09-09T05:20:14;4.35;;;1.40;;
27666;SDS011;15074;50.940;5.282;2022-09-09T05:22:39;10.35;;;1.83;;
27666;SDS011;15074;50.940;5.282;2022-09-09T05:25:05;4.60;;;1.85;;
27666;SDS011;15074;50.940;5.282;2022-09-09T05:27:33;5.63;;;1.85;;
27666;SDS011;15074;50.940;5.282;2022-09-09T05:29:59;6.57;;;2.13;;
27666;SDS011;15074;50.940;5.282;2022-09-09T05:32:24;7.93;;;1.95;;
27666;SDS011;15074;50.940;5.282;2022-09-09T05:34:51;5.07;;;1.70;;
27666;SDS011;15074;50.940;5.282;2022-09-09T05:37:17;6.10;;;1.55;;
27666;SDS011;15074;50.940;5.282;2022-09-09T05:39:43;5.05;;;1.65;;
27666;SDS011;15074;50.940;5.282;2022-09-09T05:42:08;4.40;;;1.67;;
27666;SDS011;15074;50.940;5.282;2022-09-09T05:44:34;4.57;;;1.77;;
27666;SDS011;15074;50.940;5.282;2022-09-09T05:47:00;4.15;;;1.77;;
27666;SDS011;15074;50.940;5.282;2022-09-09T05:49:26;6.53;;;1.80;;
27666;SDS011;15074;50.940;5.282;2022-09-09T05:51:52;5.22;;;1.90;;
27666;SDS011;15074;50.940;5.282;2022-09-09T05:54:17;4.45;;;1.63;;
27666;SDS011;15074;50.940;5.282;2022-09-09T05:56:43;4.32;;;1.40;;
27666;SDS011;15074;50.940;5.282;2022-09-09T05:59:09;6.50;;;2.20;;
27666;SDS011;15074;50.940;5.282;2022-09-09T06:01:35;5.05;;;2.05;;
27666;SDS011;15074;50.940;5.282;2022-09-09T06:04:05;6.03;;;2.22;;
27666;SDS011;15074;50.940;5.282;2022-09-09T06:06:32;4.35;;;1.55;;
27666;SDS011;15074;50.940;5.282;2022-09-09T06:09:04;3.85;;;1.48;;
27666;SDS011;15074;50.940;5.282;2022-09-09T06:13:57;4.20;;;1.30;;
27666;SDS011;15074;50.940;5.282;2022-09-09T06:16:24;5.70;;;1.60;;
27666;SDS011;15074;50.940;5.282;2022-09-09T06:18:51;4.28;;;1.60;;
27666;SDS011;15074;50.940;5.282;2022-09-09T06:23:50;5.13;;;1.45;;
27666;SDS011;15074;50.940;5.282;2022-09-09T06:28:44;4.70;;;1.65;;
27666;SDS011;15074;50.940;5.282;2022-09-09T06:31:11;3.42;;;1.42;;
27666;SDS011;15074;50.940;5.282;2022-09-09T06:33:39;2.15;;;1.00;;
27666;SDS011;15074;50.940;5.282;2022-09-09T06:36:27;8.43;;;1.40;;
27666;SDS011;15074;50.940;5.282;2022-09-09T06:38:53;5.13;;;1.33;;
27666;SDS011;15074;50.940;5.282;2022-09-09T06:41:20;4.38;;;1.13;;
27666;SDS011;15074;50.940;5.282;2022-09-09T06:43:47;4.13;;;1.05;;
27666;SDS011;15074;50.940;5.282;2022-09-09T06:46:15;3.55;;;1.00;;
27666;SDS011;15074;50.940;5.282;2022-09-09T06:48:42;4.60;;;1.08;;
27666;SDS011;15074;50.940;5.282;2022-09-09T06:51:13;4.97;;;1.25;;
27666;SDS011;15074;50.940;5.282;2022-09-09T06:53:44;2.38;;;1.17;;
27666;SDS011;15074;50.940;5.282;2022-09-09T06:58:39;3.03;;;1.20;;
27666;SDS011;15074;50.940;5.282;2022-09-09T07:01:12;5.40;;;1.42;;
27666;SDS011;15074;50.940;5.282;2022-09-09T07:06:06;4.90;;;1.40;;
27666;SDS011;15074;50.940;5.282;2022-09-09T07:08:34;2.97;;;1.15;;
27666;SDS011;15074;50.940;5.282;2022-09-09T07:11:03;3.95;;;1.25;;
27666;SDS011;15074;50.940;5.282;2022-09-09T07:13:30;4.00;;;1.23;;
27666;SDS011;15074;50.940;5.282;2022-09-09T07:16:02;3.88;;;1.10;;
27666;SDS011;15074;50.940;5.282;2022-09-09T07:18:43;3.67;;;1.13;;
27666;SDS011;15074;50.940;5.282;2022-09-09T07:21:09;6.03;;;1.23;;
27666;SDS011;15074;50.940;5.282;2022-09-09T07:23:37;3.55;;;1.40;;
27666;SDS011;15074;50.940;5.282;2022-09-09T07:26:07;6.88;;;1.38;;
27666;SDS011;15074;50.940;5.282;2022-09-09T07:28:38;4.38;;;1.15;;
27666;SDS011;15074;50.940;5.282;2022-09-09T07:31:05;6.00;;;1.30;;
27666;SDS011;15074;50.940;5.282;2022-09-09T07:33:33;5.03;;;1.63;;
27666;SDS011;15074;50.940;5.282;2022-09-09T07:36:03;5.57;;;1.40;;
27666;SDS011;15074;50.940;5.282;2022-09-09T07:38:39;3.63;;;1.05;;
27666;SDS011;15074;50.940;5.282;2022-09-09T07:41:07;4.40;;;1.38;;
27666;SDS011;15074;50.940;5.282;2022-09-09T07:43:40;6.85;;;1.20;;
27666;SDS011;15074;50.940;5.282;2022-09-09T07:46:07;3.30;;;1.17;;
27666;SDS011;15074;50.940;5.282;2022-09-09T07:48:36;5.13;;;1.10;;
27666;SDS011;15074;50.940;5.282;2022-09-09T07:51:03;4.43;;;1.00;;
27666;SDS011;15074;50.940;5.282;2022-09-09T07:53:33;6.55;;;1.23;;
27666;SDS011;15074;50.940;5.282;2022-09-09T07:56:05;3.97;;;1.08;;
27666;SDS011;15074;50.940;5.282;2022-09-09T07:58:36;4.43;;;1.08;;
27666;SDS011;15074;50.940;5.282;2022-09-09T08:01:06;5.03;;;1.30;;
27666;SDS011;15074;50.940;5.282;2022-09-09T08:03:43;4.05;;;1.30;;
27666;SDS011;15074;50.940;5.282;2022-09-09T08:06:09;4.75;;;1.15;;
27666;SDS011;15074;50.940;5.282;2022-09-09T08:08:36;4.88;;;1.40;;
27666;SDS011;15074;50.940;5.282;2022-09-09T08:11:07;3.47;;;1.00;;
27666;SDS011;15074;50.940;5.282;2022-09-09T08:13:35;6.18;;;1.30;;
27666;SDS011;15074;50.940;5.282;2022-09-09T08:16:08;3.85;;;1.27;;
27666;SDS011;15074;50.940;5.282;2022-09-09T08:18:38;3.40;;;1.15;;
27666;SDS011;15074;50.940;5.282;2022-09-09T08:23:41;4.35;;;1.35;;
27666;SDS011;15074;50.940;5.282;2022-09-09T08:26:26;4.38;;;1.23;;
27666;SDS011;15074;50.940;5.282;2022-09-09T08:28:55;8.52;;;1.40;;
27666;SDS011;15074;50.940;5.282;2022-09-09T08:31:26;6.63;;;1.45;;
27666;SDS011;15074;50.940;5.282;2022-09-09T08:33:55;5.80;;;1.63;;
27666;SDS011;15074;50.940;5.282;2022-09-09T08:36:23;5.13;;;1.23;;
27666;SDS011;15074;50.940;5.282;2022-09-09T08:38:51;3.60;;;1.23;;
27666;SDS011;15074;50.940;5.282;2022-09-09T08:44:29;4.22;;;1.10;;
27666;SDS011;15074;50.940;5.282;2022-09-09T08:49:51;3.53;;;1.23;;
27666;SDS011;15074;50.940;5.282;2022-09-09T08:55:15;4.38;;;1.35;;
27666;SDS011;15074;50.940;5.282;2022-09-09T08:57:52;4.03;;;1.15;;
27666;SDS011;15074;50.940;5.282;2022-09-09T09:00:20;5.38;;;1.20;;
27666;SDS011;15074;50.940;5.282;2022-09-09T09:11:26;3.75;;;1.13;;
27666;SDS011;15074;50.940;5.282;2022-09-09T09:14:00;4.72;;;1.30;;
27666;SDS011;15074;50.940;5.282;2022-09-09T09:19:13;3.58;;;1.17;;
27666;SDS011;15074;50.940;5.282;2022-09-09T09:26:43;3.83;;;1.38;;
27666;SDS011;15074;50.940;5.282;2022-09-09T09:29:10;5.63;;;1.42;;
27666;SDS011;15074;50.940;5.282;2022-09-09T09:31:37;2.63;;;0.90;;
27666;SDS011;15074;50.940;5.282;2022-09-09T09:34:03;2.50;;;0.80;;
27666;SDS011;15074;50.940;5.282;2022-09-09T09:36:38;3.78;;;1.13;;
27666;SDS011;15074;50.940;5.282;2022-09-09T09:39:07;3.25;;;0.80;;
27666;SDS011;15074;50.940;5.282;2022-09-09T09:41:41;2.13;;;0.90;;
27666;SDS011;15074;50.940;5.282;2022-09-09T09:46:49;3.58;;;0.75;;
27666;SDS011;15074;50.940;5.282;2022-09-09T09:49:15;3.10;;;0.93;;
27666;SDS011;15074;50.940;5.282;2022-09-09T09:51:40;4.55;;;0.98;;
27666;SDS011;15074;50.940;5.282;2022-09-09T09:56:38;2.17;;;0.88;;
27666;SDS011;15074;50.940;5.282;2022-09-09T09:59:05;3.15;;;1.25;;
27666;SDS011;15074;50.940;5.282;2022-09-09T10:01:44;5.50;;;1.23;;
27666;SDS011;15074;50.940;5.282;2022-09-09T10:04:19;5.40;;;1.33;;
27666;SDS011;15074;50.940;5.282;2022-09-09T10:06:48;3.55;;;1.42;;
27666;SDS011;15074;50.940;5.282;2022-09-09T10:09:24;5.00;;;1.52;;
27666;SDS011;15074;50.940;5.282;2022-09-09T10:14:46;3.97;;;1.35;;
27666;SDS011;15074;50.940;5.282;2022-09-09T10:23:21;6.53;;;1.77;;
27666;SDS011;15074;50.940;5.282;2022-09-09T10:35:19;3.45;;;1.52;;
27666;SDS011;15074;50.940;5.282;2022-09-09T10:37:58;5.60;;;2.17;;
27666;SDS011;15074;50.940;5.282;2022-09-09T10:40:36;6.05;;;1.95;;
27666;SDS011;15074;50.940;5.282;2022-09-09T10:43:42;5.28;;;2.13;;
27666;SDS011;15074;50.940;5.282;2022-09-09T10:46:06;5.80;;;2.20;;
27666;SDS011;15074;50.940;5.282;2022-09-09T10:57:00;5.93;;;2.50;;
27666;SDS011;15074;50.940;5.282;2022-09-09T10:59:33;4.00;;;1.90;;
27666;SDS011;15074;50.940;5.282;2022-09-09T11:02:15;4.85;;;2.25;;
27666;SDS011;15074;50.940;5.282;2022-09-09T11:07:25;4.40;;;1.70;;
27666;SDS011;15074;50.940;5.282;2022-09-09T11:09:59;10.73;;;2.40;;
27666;SDS011;15074;50.940;5.282;2022-09-09T11:12:28;4.80;;;1.63;;
27666;SDS011;15074;50.940;5.282;2022-09-09T11:15:06;3.80;;;1.63;;
27666;SDS011;15074;50.940;5.282;2022-09-09T11:17:40;6.63;;;2.10;;
27666;SDS011;15074;50.940;5.282;2022-09-09T11:20:12;4.05;;;2.47;;
27666;SDS011;15074;50.940;5.282;2022-09-09T11:22:43;5.00;;;1.98;;
27666;SDS011;15074;50.940;5.282;2022-09-09T11:30:20;5.68;;;1.60;;
27666;SDS011;15074;50.940;5.282;2022-09-09T11:40:44;6.07;;;1.65;;
27666;SDS011;15074;50.940;5.282;2022-09-09T11:43:12;4.13;;;1.30;;
27666;SDS011;15074;50.940;5.282;2022-09-09T11:45:42;4.03;;;1.85;;
27666;SDS011;15074;50.940;5.282;2022-09-09T11:48:25;4.90;;;1.50;;
27666;SDS011;15074;50.940;5.282;2022-09-09T11:51:02;4.78;;;1.63;;
27666;SDS011;15074;50.940;5.282;2022-09-09T11:53:32;4.88;;;1.40;;
27666;SDS011;15074;50.940;5.282;2022-09-09T11:56:07;5.15;;;1.70;;
27666;SDS011;15074;50.940;5.282;2022-09-09T11:58:37;5.25;;;1.60;;
27666;SDS011;15074;50.940;5.282;2022-09-09T12:04:14;4.30;;;1.52;;
27666;SDS011;15074;50.940;5.282;2022-09-09T12:09:52;3.92;;;1.40;;
27666;SDS011;15074;50.940;5.282;2022-09-09T12:12:26;4.18;;;1.50;;
27666;SDS011;15074;50.940;5.282;2022-09-09T12:28:15;3.47;;;0.95;;
27666;SDS011;15074;50.940;5.282;2022-09-09T12:31:23;2.30;;;1.17;;
27666;SDS011;15074;50.940;5.282;2022-09-09T12:33:49;2.67;;;0.95;;
27666;SDS011;15074;50.940;5.282;2022-09-09T12:36:29;2.33;;;1.10;;
27666;SDS011;15074;50.940;5.282;2022-09-09T12:38:58;2.88;;;1.10;;
27666;SDS011;15074;50.940;5.282;2022-09-09T12:41:50;2.95;;;0.88;;
27666;SDS011;15074;50.940;5.282;2022-09-09T12:44:22;3.78;;;0.73;;
27666;SDS011;15074;50.940;5.282;2022-09-09T12:46:49;3.30;;;0.80;;
27666;SDS011;15074;50.940;5.282;2022-09-09T12:49:29;2.83;;;0.80;;
27666;SDS011;15074;50.940;5.282;2022-09-09T12:52:05;2.78;;;0.80;;
27666;SDS011;15074;50.940;5.282;2022-09-09T12:54:37;2.35;;;0.90;;
27666;SDS011;15074;50.940;5.282;2022-09-09T12:57:10;2.78;;;0.85;;
27666;SDS011;15074;50.940;5.282;2022-09-09T12:59:39;3.60;;;1.15;;
27666;SDS011;15074;50.940;5.282;2022-09-09T13:02:14;3.28;;;0.95;;
27666;SDS011;15074;50.940;5.282;2022-09-09T13:04:50;1.80;;;0.70;;
27666;SDS011;15074;50.940;5.282;2022-09-09T13:07:17;2.95;;;0.90;;
27666;SDS011;15074;50.940;5.282;2022-09-09T13:09:45;1.38;;;0.70;;
27666;SDS011;15074;50.940;5.282;2022-09-09T13:12:44;3.25;;;0.85;;
27666;SDS011;15074;50.940;5.282;2022-09-09T13:15:03;3.13;;;0.70;;
27666;SDS011;15074;50.940;5.282;2022-09-09T13:17:35;2.33;;;0.82;;
27666;SDS011;15074;50.940;5.282;2022-09-09T13:20:01;2.83;;;0.82;;
27666;SDS011;15074;50.940;5.282;2022-09-09T13:22:31;3.45;;;1.08;;
27666;SDS011;15074;50.940;5.282;2022-09-09T13:27:50;2.00;;;0.70;;
27666;SDS011;15074;50.940;5.282;2022-09-09T13:30:34;3.20;;;0.90;;
27666;SDS011;15074;50.940;5.282;2022-09-09T13:33:02;3.67;;;1.20;;
27666;SDS011;15074;50.940;5.282;2022-09-09T13:35:34;1.98;;;0.80;;
27666;SDS011;15074;50.940;5.282;2022-09-09T13:38:13;2.63;;;0.85;;
27666;SDS011;15074;50.940;5.282;2022-09-09T13:40:39;1.90;;;0.90;;
27666;SDS011;15074;50.940;5.282;2022-09-09T13:43:05;2.90;;;1.00;;
27666;SDS011;15074;50.940;5.282;2022-09-09T13:45:51;2.55;;;0.98;;
27666;SDS011;15074;50.940;5.282;2022-09-09T13:48:21;2.35;;;0.80;;
27666;SDS011;15074;50.940;5.282;2022-09-09T13:51:03;2.63;;;0.93;;
27666;SDS011;15074;50.940;5.282;2022-09-09T13:53:30;1.95;;;0.77;;
27666;SDS011;15074;50.940;5.282;2022-09-09T13:55:56;2.70;;;0.75;;
27666;SDS011;15074;50.940;5.282;2022-09-09T13:58:23;2.58;;;0.80;;
27666;SDS011;15074;50.940;5.282;2022-09-09T14:00:50;1.02;;;0.60;;
27666;SDS011;15074;50.940;5.282;2022-09-09T14:03:17;2.63;;;1.08;;
27666;SDS011;15074;50.940;5.282;2022-09-09T14:05:44;2.95;;;0.63;;
27666;SDS011;15074;50.940;5.282;2022-09-09T14:08:14;2.05;;;0.70;;
27666;SDS011;15074;50.940;5.282;2022-09-09T14:10:45;2.60;;;1.02;;
27666;SDS011;15074;50.940;5.282;2022-09-09T14:13:11;3.22;;;0.90;;
27666;SDS011;15074;50.940;5.282;2022-09-09T14:15:37;3.20;;;0.98;;
27666;SDS011;15074;50.940;5.282;2022-09-09T14:18:03;2.75;;;1.00;;
27666;SDS011;15074;50.940;5.282;2022-09-09T14:20:29;3.42;;;0.80;;
27666;SDS011;15074;50.940;5.282;2022-09-09T14:22:55;2.92;;;0.90;;
27666;SDS011;15074;50.940;5.282;2022-09-09T14:25:23;3.45;;;0.88;;
27666;SDS011;15074;50.940;5.282;2022-09-09T14:27:50;2.23;;;0.70;;
27666;SDS011;15074;50.940;5.282;2022-09-09T14:30:17;1.95;;;0.70;;
27666;SDS011;15074;50.940;5.282;2022-09-09T14:32:43;2.03;;;0.80;;
27666;SDS011;15074;50.940;5.282;2022-09-09T14:35:10;2.20;;;0.67;;
27666;SDS011;15074;50.940;5.282;2022-09-09T14:37:37;2.20;;;0.60;;
27666;SDS011;15074;50.940;5.282;2022-09-09T14:40:04;0.98;;;0.60;;
27666;SDS011;15074;50.940;5.282;2022-09-09T14:42:34;2.53;;;0.70;;
27666;SDS011;15074;50.940;5.282;2022-09-09T14:45:00;1.85;;;0.70;;
27666;SDS011;15074;50.940;5.282;2022-09-09T14:47:26;2.38;;;0.82;;
27666;SDS011;15074;50.940;5.282;2022-09-09T14:49:52;2.95;;;0.90;;
27666;SDS011;15074;50.940;5.282;2022-09-09T14:52:18;1.73;;;0.70;;
27666;SDS011;15074;50.940;5.282;2022-09-09T14:54:44;1.30;;;0.55;;
27666;SDS011;15074;50.940;5.282;2022-09-09T14:57:10;1.23;;;0.90;;
27666;SDS011;15074;50.940;5.282;2022-09-09T14:59:36;3.15;;;0.80;;
27666;SDS011;15074;50.940;5.282;2022-09-09T15:02:01;1.40;;;0.60;;
27666;SDS011;15074;50.940;5.282;2022-09-09T15:04:29;2.20;;;0.80;;
27666;SDS011;15074;50.940;5.282;2022-09-09T15:06:54;1.75;;;0.80;;
27666;SDS011;15074;50.940;5.282;2022-09-09T15:09:20;1.60;;;0.68;;
27666;SDS011;15074;50.940;5.282;2022-09-09T15:11:46;3.13;;;0.63;;
27666;SDS011;15074;50.940;5.282;2022-09-09T15:14:11;0.77;;;0.60;;
27666;SDS011;15074;50.940;5.282;2022-09-09T15:16:37;1.77;;;0.57;;
27666;SDS011;15074;50.940;5.282;2022-09-09T15:19:04;3.60;;;1.00;;
27666;SDS011;15074;50.940;5.282;2022-09-09T15:21:31;2.33;;;0.90;;
27666;SDS011;15074;50.940;5.282;2022-09-09T15:23:58;3.15;;;1.00;;
27666;SDS011;15074;50.940;5.282;2022-09-09T15:26:25;3.20;;;1.02;;
27666;SDS011;15074;50.940;5.282;2022-09-09T15:28:51;3.15;;;1.23;;
27666;SDS011;15074;50.940;5.282;2022-09-09T15:31:18;1.70;;;0.68;;
27666;SDS011;15074;50.940;5.282;2022-09-09T15:33:52;1.33;;;0.80;;
27666;SDS011;15074;50.940;5.282;2022-09-09T15:36:24;0.95;;;0.70;;
27666;SDS011;15074;50.940;5.282;2022-09-09T15:38:51;1.98;;;0.80;;
27666;SDS011;15074;50.940;5.282;2022-09-09T15:41:18;2.55;;;0.80;;
27666;SDS011;15074;50.940;5.282;2022-09-09T15:43:48;1.75;;;0.77;;
27666;SDS011;15074;50.940;5.282;2022-09-09T15:46:21;1.85;;;0.73;;
27666;SDS011;15074;50.940;5.282;2022-09-09T15:51:39;5.18;;;1.05;;
27666;SDS011;15074;50.940;5.282;2022-09-09T15:54:07;2.40;;;0.60;;
27666;SDS011;15074;50.940;5.282;2022-09-09T15:56:33;1.77;;;0.70;;
27666;SDS011;15074;50.940;5.282;2022-09-09T15:59:00;1.85;;;1.08;;
27666;SDS011;15074;50.940;5.282;2022-09-09T16:03:55;3.58;;;0.82;;
27666;SDS011;15074;50.940;5.282;2022-09-09T16:06:23;2.38;;;0.98;;
27666;SDS011;15074;50.940;5.282;2022-09-09T16:08:51;1.40;;;0.80;;
27666;SDS011;15074;50.940;5.282;2022-09-09T16:11:19;3.83;;;0.80;;
27666;SDS011;15074;50.940;5.282;2022-09-09T16:13:47;2.30;;;0.75;;
27666;SDS011;15074;50.940;5.282;2022-09-09T16:16:15;1.67;;;0.70;;
27666;SDS011;15074;50.940;5.282;2022-09-09T16:18:43;3.05;;;0.90;;
27666;SDS011;15074;50.940;5.282;2022-09-09T16:21:18;2.08;;;0.85;;
27666;SDS011;15074;50.940;5.282;2022-09-09T16:23:45;2.25;;;0.75;;
27666;SDS011;15074;50.940;5.282;2022-09-09T16:26:12;2.40;;;0.80;;
27666;SDS011;15074;50.940;5.282;2022-09-09T16:28:39;2.50;;;0.70;;
27666;SDS011;15074;50.940;5.282;2022-09-09T16:31:06;2.75;;;0.75;;
27666;SDS011;15074;50.940;5.282;2022-09-09T16:33:38;2.50;;;0.90;;
27666;SDS011;15074;50.940;5.282;2022-09-09T16:36:06;1.92;;;0.63;;
27666;SDS011;15074;50.940;5.282;2022-09-09T16:38:32;1.63;;;0.90;;
27666;SDS011;15074;50.940;5.282;2022-09-09T16:40:59;2.90;;;0.80;;
27666;SDS011;15074;50.940;5.282;2022-09-09T16:43:25;1.38;;;0.70;;
27666;SDS011;15074;50.940;5.282;2022-09-09T16:45:51;2.20;;;0.80;;
27666;SDS011;15074;50.940;5.282;2022-09-09T16:48:17;1.90;;;0.77;;
27666;SDS011;15074;50.940;5.282;2022-09-09T16:50:42;2.22;;;0.70;;
27666;SDS011;15074;50.940;5.282;2022-09-09T16:53:08;1.13;;;0.70;;
27666;SDS011;15074;50.940;5.282;2022-09-09T16:55:40;2.25;;;0.77;;
27666;SDS011;15074;50.940;5.282;2022-09-09T16:58:07;4.13;;;0.73;;
27666;SDS011;15074;50.940;5.282;2022-09-09T17:00:35;1.30;;;0.70;;
27666;SDS011;15074;50.940;5.282;2022-09-09T17:03:01;1.85;;;0.70;;
27666;SDS011;15074;50.940;5.282;2022-09-09T17:05:27;2.20;;;0.73;;
27666;SDS011;15074;50.940;5.282;2022-09-09T17:07:54;2.13;;;0.65;;
27666;SDS011;15074;50.940;5.282;2022-09-09T17:10:23;1.88;;;0.80;;
27666;SDS011;15074;50.940;5.282;2022-09-09T17:12:50;2.17;;;0.95;;
27666;SDS011;15074;50.940;5.282;2022-09-09T17:15:16;2.85;;;0.80;;
27666;SDS011;15074;50.940;5.282;2022-09-09T17:17:43;2.83;;;0.77;;
27666;SDS011;15074;50.940;5.282;2022-09-09T17:20:10;3.25;;;0.93;;
27666;SDS011;15074;50.940;5.282;2022-09-09T17:22:36;1.75;;;0.98;;
27666;SDS011;15074;50.940;5.282;2022-09-09T17:25:02;3.08;;;0.63;;
27666;SDS011;15074;50.940;5.282;2022-09-09T17:27:28;2.33;;;0.65;;
27666;SDS011;15074;50.940;5.282;2022-09-09T17:29:56;4.78;;;0.90;;
27666;SDS011;15074;50.940;5.282;2022-09-09T17:32:23;18.85;;;1.17;;
27666;SDS011;15074;50.940;5.282;2022-09-09T17:34:49;1.50;;;0.57;;
27666;SDS011;15074;50.940;5.282;2022-09-09T17:37:15;2.50;;;0.77;;
27666;SDS011;15074;50.940;5.282;2022-09-09T17:39:40;1.35;;;0.77;;